This is the latest recevied weather packets stored in our database for station/object W6UA-13. If no packets are shown the sender has not sent any weather packets the latest 10 day(s).
| Time | Temp. | Humidity | Pressure | Rain* | Wind** | Luminosity | Snow |
|---|---|---|---|---|---|---|---|
| 1777776585 | 13.89° C | 78% | 1011.8 hPa | 0 mm | - | 0 W/m² | - |
| 1777775685 | 13.89° C | 77% | 1011.7 hPa | 0 mm | - | 7 W/m² | - |
| 1777774785 | 14.44° C | 74% | 1012 hPa | 0 mm | - | 23 W/m² | - |
| 1777773885 | 15° C | 72% | 1012.2 hPa | 0 mm | - | 69 W/m² | - |
| 1777772985 | 15.56° C | 70% | 1012.4 hPa | 0 mm | - | 116 W/m² | - |
| 1777772085 | 16.11° C | 68% | 1012.6 hPa | 0 mm | - | 174 W/m² | - |
| 1777771185 | 16.67° C | 67% | 1012.8 hPa | 0 mm | - | 206 W/m² | - |
| 1777770285 | 17.78° C | 65% | 1012.8 hPa | 0 mm | - | 190 W/m² | - |
| 1777769386 | 17.78° C | 64% | 1013.1 hPa | 0 mm | - | 250 W/m² | - |
| 1777768486 | 18.89° C | 62% | 1013 hPa | 0 mm | - | 336 W/m² | - |
| 1777767585 | 18.33° C | 63% | 1012.9 hPa | 0 mm | - | 360 W/m² | - |
| 1777766685 | 18.89° C | 61% | 1012.8 hPa | 0 mm | - | 171 W/m² | - |
| 1777765785 | 19.44° C | 61% | 1012.8 hPa | 0 mm | - | 450 W/m² | - |
| 1777764886 | 19.44° C | 61% | 1012.7 hPa | 0 mm | - | 563 W/m² | - |
| 1777763986 | 18.89° C | 63% | 1012.9 hPa | 0 mm | - | 608 W/m² | - |
| 1777763086 | 18.89° C | 62% | 1013.1 hPa | 0 mm | - | 643 W/m² | - |
| 1777762186 | 18.89° C | 61% | 1013.1 hPa | 0 mm | - | 687 W/m² | - |
| 1777761286 | 19.44° C | 61% | 1013.3 hPa | 0 mm | - | 415 W/m² | - |
| 1777760386 | 18.89° C | 62% | 1013.7 hPa | 0 mm | - | 756 W/m² | - |
| 1777759486 | 19.44° C | 61% | 1013.8 hPa | 0 mm | - | 791 W/m² | - |
| 1777758586 | 18.89° C | 63% | 1014.1 hPa | 0 mm | - | 812 W/m² | - |
| 1777757686 | 18.89° C | 63% | 1014.3 hPa | 0 mm | - | 828 W/m² | - |
| 1777756786 | 18.89° C | 64% | 1014.6 hPa | 0 mm | - | 1035 W/m² | - |
| 1777755910 | 12.78° C | 85% | 1014.8 hPa | 0 mm | - | 128 W/m² | - |
| 1777755886 | 18.33° C | 65% | 1014.8 hPa | 0 mm | - | 626 W/m² | - |
* Rain latest hour (hover to see other rain measurements)
** Current wind speed in m/s (hover to see current wind gust speed)